Nippon Maru — 3FDA7 — position and weather

sailwx.info

Track history (hours):
 
Tides and Currents Weather Stations Pressure Air Temp Water Temp Dewpoint Dewpoint Depression Visibility Wind Speed Wind Dir Waves Ship Positions

Nippon Maru

Last reported at 2016-Jul-13 03:31 UTC. Time now 2016-Jul-23 23:05 UTC.
Position N 22°13' E 120°07'.
Warning: this ship's position is 10 days out of date.

Length 190 m; draft 6.1 m.

Type: Cargo ship. MMSI: 353814000.

Date/timePositionNaut miles runAvg speedWind from/ knotsBaromVisibWave heightAir tempDewpointWater temp
2016-Jul-13 03:31N 22°13' E 120°07'1313.5
2016-Jul-13 02:33N 22°26' E 120°11'9 8.7
2016-Jul-13 01:29N 22°33' E 120°17'3 0.2
2016-Jul-12 11:28N 22°33' E 120°21'0 0.0
2016-Jul-12 10:22N 22°33' E 120°21'1 0.6
2016-Jul-12 09:28N 22°33' E 120°20'1 0.3
2016-Jul-12 07:28N 22°33' E 120°21'0 0.0
2016-Jul-11 23:19N 22°33' E 120°21'5 6.4
2016-Jul-11 22:32N 22°32' E 120°15'2 0.8
2016-Jul-11 20:31N 22°31' E 120°15'0 0.0
2016-Jul-11 18:07N 22°31' E 120°15'0 0.0
2016-Jul-11 17:31N 22°31' E 120°15'0 0.0
2016-Jul-11 16:19N 22°31' E 120°15'0 0.0
2016-Jul-11 15:31N 22°31' E 120°15'0 0.1
2016-Jul-11 14:25N 22°31' E 120°15'0 0.1
2016-Jul-11 13:25N 22°31' E 120°15'0 0.1
2016-Jul-11 12:31N 22°31' E 120°15'0 0.0
2016-Jul-11 11:31N 22°31' E 120°15'0 0.0
2016-Jul-11 09:31N 22°31' E 120°15'0 0.0
2016-Jul-11 08:31N 22°31' E 120°15'0 0.2
2016-Jul-11 07:31N 22°31' E 120°15'0 0.1
2016-Jul-11 06:31N 22°31' E 120°15'0 0.0
2016-Jul-11 04:31N 22°31' E 120°15'0 0.0
2016-Jul-11 03:31N 22°31' E 120°15'0 0.1
2016-Jul-11 02:31N 22°31' E 120°15'0 0.1
2016-Jul-11 01:31N 22°31' E 120°15'0 0.0
2016-Jul-11 00:31N 22°31' E 120°15'0 0.0
2016-Jul-10 23:25N 22°31' E 120°15'0 0.0
2016-Jul-10 22:31N 22°31' E 120°15'0 0.1
2016-Jul-10 21:31N 22°31' E 120°15'0 0.1
2016-Jul-10 20:25N 22°31' E 120°15'0 0.0
2016-Jul-10 19:31N 22°31' E 120°15'0 0.0
2016-Jul-10 18:31N 22°31' E 120°15'0 0.0
2016-Jul-10 17:31N 22°31' E 120°15'0 0.1
2016-Jul-10 16:25N 22°31' E 120°15'0 0.1
2016-Jul-10 15:31N 22°31' E 120°15'0 0.1
2016-Jul-10 14:31N 22°31' E 120°15'0 0.1
2016-Jul-10 13:31N 22°31' E 120°15'0 0.0
2016-Jul-10 12:31N 22°31' E 120°15'0 0.1
2016-Jul-10 11:31N 22°31' E 120°15'0 0.0
2016-Jul-10 10:31N 22°31' E 120°15'0 0.0
2016-Jul-10 09:31N 22°31' E 120°15'0 0.1
2016-Jul-10 08:31N 22°31' E 120°15'0 0.0
2016-Jul-10 07:31N 22°31' E 120°15'0 0.0
2016-Jul-10 06:31N 22°31' E 120°15'0 0.1
2016-Jul-10 05:31N 22°31' E 120°15'0 0.1
2016-Jul-10 04:31N 22°31' E 120°15'0 0.1
2016-Jul-10 03:31N 22°31' E 120°15'0 0.1
2016-Jul-10 02:31N 22°31' E 120°15'2 1.8
2016-Jul-10 01:33N 22°31' E 120°13'9 8.9
2016-Jul-10 00:33N 22°38' E 120°07'1413.4
2016-Jul-09 23:33N 22°48' E 119°57'  
Track history (hours):
 
Tides and Currents Weather Stations Pressure Air Temp Water Temp Dewpoint Dewpoint Depression Visibility Wind Speed Wind Dir Waves Ship Positions

Nippon Maru

Last reported at 2016-Jul-13 03:31 UTC. Time now 2016-Jul-23 23:05 UTC.
Position N 22°13' E 120°07'.
Warning: this ship's position is 10 days out of date.

Length 190 m; draft 6.1 m.

Type: Cargo ship. MMSI: 353814000.

Date/timePositionNaut miles runAvg speedWind from/ knotsBaromVisibWave heightAir tempDewpointWater temp
2016-Jul-13 03:31N 22°13' E 120°07'1313.5
2016-Jul-13 02:33N 22°26' E 120°11'9 8.7
2016-Jul-13 01:29N 22°33' E 120°17'3 0.2
2016-Jul-12 11:28N 22°33' E 120°21'0 0.0
2016-Jul-12 10:22N 22°33' E 120°21'1 0.6
2016-Jul-12 09:28N 22°33' E 120°20'1 0.3
2016-Jul-12 07:28N 22°33' E 120°21'0 0.0
2016-Jul-11 23:19N 22°33' E 120°21'5 6.4
2016-Jul-11 22:32N 22°32' E 120°15'2 0.8
2016-Jul-11 20:31N 22°31' E 120°15'0 0.0
2016-Jul-11 18:07N 22°31' E 120°15'0 0.0
2016-Jul-11 17:31N 22°31' E 120°15'0 0.0
2016-Jul-11 16:19N 22°31' E 120°15'0 0.0
2016-Jul-11 15:31N 22°31' E 120°15'0 0.1
2016-Jul-11 14:25N 22°31' E 120°15'0 0.1
2016-Jul-11 13:25N 22°31' E 120°15'0 0.1
2016-Jul-11 12:31N 22°31' E 120°15'0 0.0
2016-Jul-11 11:31N 22°31' E 120°15'0 0.0
2016-Jul-11 09:31N 22°31' E 120°15'0 0.0
2016-Jul-11 08:31N 22°31' E 120°15'0 0.2
2016-Jul-11 07:31N 22°31' E 120°15'0 0.1
2016-Jul-11 06:31N 22°31' E 120°15'0 0.0
2016-Jul-11 04:31N 22°31' E 120°15'0 0.0
2016-Jul-11 03:31N 22°31' E 120°15'0 0.1
2016-Jul-11 02:31N 22°31' E 120°15'0 0.1
2016-Jul-11 01:31N 22°31' E 120°15'0 0.0
2016-Jul-11 00:31N 22°31' E 120°15'0 0.0
2016-Jul-10 23:25N 22°31' E 120°15'0 0.0
2016-Jul-10 22:31N 22°31' E 120°15'0 0.1
2016-Jul-10 21:31N 22°31' E 120°15'0 0.1
2016-Jul-10 20:25N 22°31' E 120°15'0 0.0
2016-Jul-10 19:31N 22°31' E 120°15'0 0.0
2016-Jul-10 18:31N 22°31' E 120°15'0 0.0
2016-Jul-10 17:31N 22°31' E 120°15'0 0.1
2016-Jul-10 16:25N 22°31' E 120°15'0 0.1
2016-Jul-10 15:31N 22°31' E 120°15'0 0.1
2016-Jul-10 14:31N 22°31' E 120°15'0 0.1
2016-Jul-10 13:31N 22°31' E 120°15'0 0.0
2016-Jul-10 12:31N 22°31' E 120°15'0 0.1
2016-Jul-10 11:31N 22°31' E 120°15'0 0.0
2016-Jul-10 10:31N 22°31' E 120°15'0 0.0
2016-Jul-10 09:31N 22°31' E 120°15'0 0.1
2016-Jul-10 08:31N 22°31' E 120°15'0 0.0
2016-Jul-10 07:31N 22°31' E 120°15'0 0.0
2016-Jul-10 06:31N 22°31' E 120°15'0 0.1
2016-Jul-10 05:31N 22°31' E 120°15'0 0.1
2016-Jul-10 04:31N 22°31' E 120°15'0 0.1
2016-Jul-10 03:31N 22°31' E 120°15'0 0.1
2016-Jul-10 02:31N 22°31' E 120°15'2 1.8
2016-Jul-10 01:33N 22°31' E 120°13'9 8.9
2016-Jul-10 00:33N 22°38' E 120°07'1413.4
2016-Jul-09 23:33N 22°48' E 119°57'  

Dump ship's entire track history